sensor_id;sensor_type;location;lat;lon;timestamp;pressure;altitude;pressure_sealevel;temperature;humidity
3132;BME280;62090;52.330;9.104;2023-05-21T00:02:18;101350.72;;;15.81;84.44
3132;BME280;62090;52.330;9.104;2023-05-21T00:04:51;101332.72;;;15.78;84.59
3132;BME280;62090;52.330;9.104;2023-05-21T00:07:21;101330.97;;;15.77;84.12
3132;BME280;62090;52.330;9.104;2023-05-21T00:09:51;101347.44;;;15.93;83.84
3132;BME280;62090;52.330;9.104;2023-05-21T00:12:21;101322.50;;;15.84;83.50
3132;BME280;62090;52.330;9.104;2023-05-21T00:14:51;101326.69;;;15.78;83.83
3132;BME280;62090;52.330;9.104;2023-05-21T00:17:21;101334.47;;;15.81;84.26
3132;BME280;62090;52.330;9.104;2023-05-21T00:19:54;101323.19;;;15.70;84.16
3132;BME280;62090;52.330;9.104;2023-05-21T00:22:26;101319.69;;;15.65;84.61
3132;BME280;62090;52.330;9.104;2023-05-21T00:24:55;101324.06;;;15.70;84.44
3132;BME280;62090;52.330;9.104;2023-05-21T00:27:25;101315.41;;;15.65;84.66
3132;BME280;62090;52.330;9.104;2023-05-21T00:29:55;101317.88;;;15.57;85.26
3132;BME280;62090;52.330;9.104;2023-05-21T00:32:25;101312.78;;;15.59;84.97
3132;BME280;62090;52.330;9.104;2023-05-21T00:34:57;101308.44;;;15.56;84.94
3132;BME280;62090;52.330;9.104;2023-05-21T00:37:28;101298.66;;;15.31;86.39
3132;BME280;62090;52.330;9.104;2023-05-21T00:40:00;101298.66;;;15.31;86.09
3132;BME280;62090;52.330;9.104;2023-05-21T00:42:30;101305.63;;;15.38;86.41
3132;BME280;62090;52.330;9.104;2023-05-21T00:45:06;101285.59;;;15.16;86.77
3132;BME280;62090;52.330;9.104;2023-05-21T00:47:37;101304.56;;;15.26;87.27
3132;BME280;62090;52.330;9.104;2023-05-21T00:50:10;101295.97;;;15.23;86.79
3132;BME280;62090;52.330;9.104;2023-05-21T00:52:42;101293.47;;;15.27;86.94
3132;BME280;62090;52.330;9.104;2023-05-21T00:55:12;101289.09;;;15.21;86.94
3132;BME280;62090;52.330;9.104;2023-05-21T00:57:42;101293.31;;;15.16;87.61
3132;BME280;62090;52.330;9.104;2023-05-21T01:00:13;101291.59;;;15.16;87.41
3132;BME280;62090;52.330;9.104;2023-05-21T01:02:44;101294.19;;;15.16;87.86
3132;BME280;62090;52.330;9.104;2023-05-21T01:05:18;101291.56;;;15.15;87.64
3132;BME280;62090;52.330;9.104;2023-05-21T01:07:49;101288.13;;;15.11;87.99
3132;BME280;62090;52.330;9.104;2023-05-21T01:10:19;101291.41;;;15.04;88.40
3132;BME280;62090;52.330;9.104;2023-05-21T01:12:50;101292.22;;;15.00;89.00
3132;BME280;62090;52.330;9.104;2023-05-21T01:15:21;101284.47;;;14.96;88.64
3132;BME280;62090;52.330;9.104;2023-05-21T01:17:50;101292.16;;;14.97;88.85
3132;BME280;62090;52.330;9.104;2023-05-21T01:20:24;101287.84;;;14.95;89.17
3132;BME280;62090;52.330;9.104;2023-05-21T01:22:59;101275.72;;;14.86;89.03
3132;BME280;62090;52.330;9.104;2023-05-21T01:25:29;101297.25;;;14.94;89.29
3132;BME280;62090;52.330;9.104;2023-05-21T01:27:59;101293.66;;;14.83;90.34
3132;BME280;62090;52.330;9.104;2023-05-21T01:30:29;101279.19;;;14.88;89.79
3132;BME280;62090;52.330;9.104;2023-05-21T01:33:02;101294.69;;;14.94;89.01
3132;BME280;62090;52.330;9.104;2023-05-21T01:35:34;101266.31;;;14.85;89.17
3132;BME280;62090;52.330;9.104;2023-05-21T01:38:14;101274.97;;;14.90;89.00
3132;BME280;62090;52.330;9.104;2023-05-21T01:40:50;101263.69;;;14.82;89.26
3132;BME280;62090;52.330;9.104;2023-05-21T01:43:25;101284.25;;;14.84;89.56
3132;BME280;62090;52.330;9.104;2023-05-21T01:45:57;101280.72;;;14.77;90.36
3132;BME280;62090;52.330;9.104;2023-05-21T01:48:28;101271.28;;;14.76;90.12
3132;BME280;62090;52.330;9.104;2023-05-21T01:51:01;101275.66;;;14.80;89.76
3132;BME280;62090;52.330;9.104;2023-05-21T01:53:34;101277.25;;;14.73;90.30
3132;BME280;62090;52.330;9.104;2023-05-21T01:56:05;101271.22;;;14.71;90.67
3132;BME280;62090;52.330;9.104;2023-05-21T01:58:35;101263.50;;;14.68;90.24
3132;BME280;62090;52.330;9.104;2023-05-21T02:01:05;101280.78;;;14.80;90.27
3132;BME280;62090;52.330;9.104;2023-05-21T02:03:34;101267.91;;;14.77;90.63
3132;BME280;62090;52.330;9.104;2023-05-21T02:06:04;101272.22;;;14.79;90.98
3132;BME280;62090;52.330;9.104;2023-05-21T02:08:37;101266.16;;;14.76;91.37
3132;BME280;62090;52.330;9.104;2023-05-21T02:11:07;101264.53;;;14.81;90.84
3132;BME280;62090;52.330;9.104;2023-05-21T02:13:36;101237.06;;;14.74;90.77
3132;BME280;62090;52.330;9.104;2023-05-21T02:16:08;101257.78;;;14.88;90.65
3132;BME280;62090;52.330;9.104;2023-05-21T02:18:41;101259.41;;;14.79;90.51
3132;BME280;62090;52.330;9.104;2023-05-21T02:21:12;101255.78;;;14.70;91.57
3132;BME280;62090;52.330;9.104;2023-05-21T02:23:45;101247.16;;;14.63;92.13
3132;BME280;62090;52.330;9.104;2023-05-21T02:26:15;101252.25;;;14.62;92.36
3132;BME280;62090;52.330;9.104;2023-05-21T02:28:45;101250.59;;;14.64;92.93
3132;BME280;62090;52.330;9.104;2023-05-21T02:31:15;101253.16;;;14.64;93.13
3132;BME280;62090;52.330;9.104;2023-05-21T02:33:45;101238.53;;;14.60;92.83
3132;BME280;62090;52.330;9.104;2023-05-21T02:36:15;101256.59;;;14.66;93.26
3132;BME280;62090;52.330;9.104;2023-05-21T02:38:48;101256.56;;;14.63;93.24
3132;BME280;62090;52.330;9.104;2023-05-21T02:41:20;101209.88;;;14.34;93.44
3132;BME280;62090;52.330;9.104;2023-05-21T02:43:50;101259.22;;;14.69;93.15
3132;BME280;62090;52.330;9.104;2023-05-21T02:46:19;101255.69;;;14.62;93.31
3132;BME280;62090;52.330;9.104;2023-05-21T02:48:50;101248.88;;;14.63;93.87
3132;BME280;62090;52.330;9.104;2023-05-21T02:51:20;101253.13;;;14.62;92.86
3132;BME280;62090;52.330;9.104;2023-05-21T02:53:53;101257.38;;;14.62;93.08
3132;BME280;62090;52.330;9.104;2023-05-21T02:56:23;101246.22;;;14.58;92.58
3132;BME280;62090;52.330;9.104;2023-05-21T02:58:53;101249.53;;;14.51;93.26
3132;BME280;62090;52.330;9.104;2023-05-21T03:01:22;101241.81;;;14.51;92.57
3132;BME280;62090;52.330;9.104;2023-05-21T03:03:52;101252.13;;;14.53;92.89
3132;BME280;62090;52.330;9.104;2023-05-21T03:06:23;101242.56;;;14.44;93.32
3132;BME280;62090;52.330;9.104;2023-05-21T03:08:55;101245.13;;;14.43;93.76
3132;BME280;62090;52.330;9.104;2023-05-21T03:11:25;101242.47;;;14.40;93.65
3132;BME280;62090;52.330;9.104;2023-05-21T03:13:55;101234.66;;;14.33;93.78
3132;BME280;62090;52.330;9.104;2023-05-21T03:16:26;101237.97;;;14.28;94.63
3132;BME280;62090;52.330;9.104;2023-05-21T03:19:00;101221.66;;;14.21;94.70
3132;BME280;62090;52.330;9.104;2023-05-21T03:21:31;101239.75;;;14.30;94.58
3132;BME280;62090;52.330;9.104;2023-05-21T03:24:04;101240.53;;;14.28;94.74
3132;BME280;62090;52.330;9.104;2023-05-21T03:26:34;101240.53;;;14.26;95.11
3132;BME280;62090;52.330;9.104;2023-05-21T03:29:04;101233.72;;;14.27;94.89
3132;BME280;62090;52.330;9.104;2023-05-21T03:31:34;101221.56;;;14.17;95.20
3132;BME280;62090;52.330;9.104;2023-05-21T03:34:10;101227.63;;;14.23;95.33
3132;BME280;62090;52.330;9.104;2023-05-21T03:36:39;101210.28;;;14.07;95.92
3132;BME280;62090;52.330;9.104;2023-05-21T03:39:12;101228.28;;;14.10;96.17
3132;BME280;62090;52.330;9.104;2023-05-21T03:41:42;101234.06;;;14.00;96.72
3132;BME280;62090;52.330;9.104;2023-05-21T03:44:20;101215.13;;;13.90;97.13
3132;BME280;62090;52.330;9.104;2023-05-21T03:46:55;101224.75;;;14.04;97.21
3132;BME280;62090;52.330;9.104;2023-05-21T03:49:33;101228.19;;;14.06;97.04
3132;BME280;62090;52.330;9.104;2023-05-21T03:52:06;101232.63;;;14.14;96.80
3132;BME280;62090;52.330;9.104;2023-05-21T03:54:39;101218.00;;;14.09;96.49
3132;BME280;62090;52.330;9.104;2023-05-21T03:57:08;101210.28;;;14.07;96.79
3132;BME280;62090;52.330;9.104;2023-05-21T03:59:39;101237.06;;;14.24;95.94
3132;BME280;62090;52.330;9.104;2023-05-21T04:02:09;101221.75;;;14.29;95.79
3132;BME280;62090;52.330;9.104;2023-05-21T04:04:40;101217.38;;;14.22;95.84
3132;BME280;62090;52.330;9.104;2023-05-21T04:07:11;101215.66;;;14.21;96.06
3132;BME280;62090;52.330;9.104;2023-05-21T04:09:44;101232.94;;;14.32;95.88
3132;BME280;62090;52.330;9.104;2023-05-21T04:12:14;101244.03;;;14.33;95.97
3132;BME280;62090;52.330;9.104;2023-05-21T04:14:46;101233.06;;;14.38;94.96
3132;BME280;62090;52.330;9.104;2023-05-21T04:17:16;101242.50;;;14.41;94.41
3132;BME280;62090;52.330;9.104;2023-05-21T04:19:49;101220.97;;;14.31;94.36
3132;BME280;62090;52.330;9.104;2023-05-21T04:22:19;101241.69;;;14.44;94.71
3132;BME280;62090;52.330;9.104;2023-05-21T04:24:55;101243.41;;;14.43;94.37
3132;BME280;62090;52.330;9.104;2023-05-21T04:27:29;101227.09;;;14.40;94.22
3132;BME280;62090;52.330;9.104;2023-05-21T04:30:00;101228.81;;;14.41;94.15
3132;BME280;62090;52.330;9.104;2023-05-21T04:32:32;101242.63;;;14.47;94.02
3132;BME280;62090;52.330;9.104;2023-05-21T04:35:02;101219.47;;;14.43;93.98
3132;BME280;62090;52.330;9.104;2023-05-21T04:37:33;101245.47;;;14.65;93.44
3132;BME280;62090;52.330;9.104;2023-05-21T04:40:07;101248.00;;;14.62;93.32
3132;BME280;62090;52.330;9.104;2023-05-21T04:42:37;101242.97;;;14.68;93.06
3132;BME280;62090;52.330;9.104;2023-05-21T04:45:08;101252.50;;;14.77;92.93
3132;BME280;62090;52.330;9.104;2023-05-21T04:47:41;101222.22;;;14.53;92.65
3132;BME280;62090;52.330;9.104;2023-05-21T04:50:12;101227.28;;;14.50;93.38
3132;BME280;62090;52.330;9.104;2023-05-21T04:52:41;101252.41;;;14.71;93.18
3132;BME280;62090;52.330;9.104;2023-05-21T04:55:14;101249.84;;;14.71;92.46
3132;BME280;62090;52.330;9.104;2023-05-21T04:57:45;101259.94;;;14.60;93.04
3132;BME280;62090;52.330;9.104;2023-05-21T05:00:15;101247.00;;;14.53;92.82
3132;BME280;62090;52.330;9.104;2023-05-21T05:02:45;101254.75;;;14.57;92.98
3132;BME280;62090;52.330;9.104;2023-05-21T05:05:15;101252.28;;;14.63;92.88
3132;BME280;62090;52.330;9.104;2023-05-21T05:07:45;101255.63;;;14.59;93.05
3132;BME280;62090;52.330;9.104;2023-05-21T05:10:17;101256.59;;;14.66;92.78
3132;BME280;62090;52.330;9.104;2023-05-21T05:12:47;101249.69;;;14.62;92.52
3132;BME280;62090;52.330;9.104;2023-05-21T05:15:17;101248.97;;;14.69;92.72
3132;BME280;62090;52.330;9.104;2023-05-21T05:17:48;101249.91;;;14.75;92.75
3132;BME280;62090;52.330;9.104;2023-05-21T05:20:18;101241.25;;;14.67;92.90
3132;BME280;62090;52.330;9.104;2023-05-21T05:22:49;101235.97;;;14.60;93.12
3132;BME280;62090;52.330;9.104;2023-05-21T05:25:22;101238.81;;;14.75;92.56
3132;BME280;62090;52.330;9.104;2023-05-21T05:27:52;101234.63;;;14.83;92.41
3132;BME280;62090;52.330;9.104;2023-05-21T05:30:21;101225.34;;;14.91;91.86
3132;BME280;62090;52.330;9.104;2023-05-21T05:32:54;101215.00;;;14.87;91.50
3132;BME280;62090;52.330;9.104;2023-05-21T05:35:24;101222.63;;;14.82;91.05
3132;BME280;62090;52.330;9.104;2023-05-21T05:37:55;101237.31;;;14.91;91.67
3132;BME280;62090;52.330;9.104;2023-05-21T05:40:27;101227.19;;;15.00;91.18
3132;BME280;62090;52.330;9.104;2023-05-21T05:42:57;101233.16;;;14.99;90.97
3132;BME280;62090;52.330;9.104;2023-05-21T05:45:27;101237.47;;;15.01;91.39
3132;BME280;62090;52.330;9.104;2023-05-21T05:47:57;101235.88;;;15.09;90.43
3132;BME280;62090;52.330;9.104;2023-05-21T05:50:27;101241.03;;;15.12;90.40
3132;BME280;62090;52.330;9.104;2023-05-21T05:52:57;101218.66;;;15.01;90.78
3132;BME280;62090;52.330;9.104;2023-05-21T05:55:30;101205.88;;;15.07;90.22
3132;BME280;62090;52.330;9.104;2023-05-21T05:58:01;101236.13;;;15.28;90.11
3132;BME280;62090;52.330;9.104;2023-05-21T06:00:38;101236.16;;;15.31;89.71
3132;BME280;62090;52.330;9.104;2023-05-21T06:03:08;101239.44;;;15.20;90.26
3132;BME280;62090;52.330;9.104;2023-05-21T06:05:38;101221.31;;;15.08;90.05
3132;BME280;62090;52.330;9.104;2023-05-21T06:08:08;101222.41;;;15.26;89.80
3132;BME280;62090;52.330;9.104;2023-05-21T06:10:40;101230.25;;;15.39;90.00
3132;BME280;62090;52.330;9.104;2023-05-21T06:13:10;101217.53;;;15.47;89.44
3132;BME280;62090;52.330;9.104;2023-05-21T06:15:40;101208.09;;;15.46;89.34
3132;BME280;62090;52.330;9.104;2023-05-21T06:18:10;101191.97;;;15.56;88.83
3132;BME280;62090;52.330;9.104;2023-05-21T06:20:40;101204.06;;;15.66;88.05
3132;BME280;62090;52.330;9.104;2023-05-21T06:23:11;101198.00;;;15.58;88.12
3132;BME280;62090;52.330;9.104;2023-05-21T06:25:46;101230.06;;;15.93;87.78
3132;BME280;62090;52.330;9.104;2023-05-21T06:28:16;101227.41;;;15.84;86.91
3132;BME280;62090;52.330;9.104;2023-05-21T06:30:47;101209.41;;;15.83;86.39
3132;BME280;62090;52.330;9.104;2023-05-21T06:33:18;101222.34;;;15.90;86.87
3132;BME280;62090;52.330;9.104;2023-05-21T06:35:49;101206.91;;;15.90;86.65
3132;BME280;62090;52.330;9.104;2023-05-21T06:38:19;101210.94;;;15.67;88.15
3132;BME280;62090;52.330;9.104;2023-05-21T06:40:51;101214.34;;;15.66;88.05
3132;BME280;62090;52.330;9.104;2023-05-21T06:43:36;101219.50;;;15.68;88.25
3132;BME280;62090;52.330;9.104;2023-05-21T06:46:24;101214.38;;;15.68;87.81
3132;BME280;62090;52.330;9.104;2023-05-21T06:48:54;101199.72;;;15.60;87.24
3132;BME280;62090;52.330;9.104;2023-05-21T06:51:24;101214.53;;;15.80;87.89
3132;BME280;62090;52.330;9.104;2023-05-21T06:53:54;101202.44;;;15.73;87.98
3132;BME280;62090;52.330;9.104;2023-05-21T06:56:27;101213.69;;;15.81;88.23
3132;BME280;62090;52.330;9.104;2023-05-21T06:58:57;101187.06;;;15.74;88.03
3132;BME280;62090;52.330;9.104;2023-05-21T07:01:26;101205.22;;;15.94;87.94
3132;BME280;62090;52.330;9.104;2023-05-21T07:03:56;101202.56;;;15.86;87.13
3132;BME280;62090;52.330;9.104;2023-05-21T07:06:26;101213.94;;;16.10;87.37
3132;BME280;62090;52.330;9.104;2023-05-21T07:08:56;101189.03;;;16.02;86.26
3132;BME280;62090;52.330;9.104;2023-05-21T07:11:29;101200.94;;;15.91;87.01
3132;BME280;62090;52.330;9.104;2023-05-21T07:14:02;101195.00;;;15.98;87.98
3132;BME280;62090;52.330;9.104;2023-05-21T07:16:34;101205.50;;;16.24;87.45
3132;BME280;62090;52.330;9.104;2023-05-21T07:19:05;101211.66;;;16.38;86.98
3132;BME280;62090;52.330;9.104;2023-05-21T07:21:35;101206.59;;;16.52;86.54
3132;BME280;62090;52.330;9.104;2023-05-21T07:24:06;101216.13;;;16.61;86.41
3132;BME280;62090;52.330;9.104;2023-05-21T07:26:41;101210.22;;;16.72;85.22
3132;BME280;62090;52.330;9.104;2023-05-21T07:29:11;101213.66;;;16.77;85.27
3132;BME280;62090;52.330;9.104;2023-05-21T07:31:41;101209.44;;;16.81;85.26
3132;BME280;62090;52.330;9.104;2023-05-21T07:34:11;101206.84;;;16.79;85.05
3132;BME280;62090;52.330;9.104;2023-05-21T07:36:41;101217.22;;;16.92;84.88
3132;BME280;62090;52.330;9.104;2023-05-21T07:39:11;101220.69;;;16.97;85.01
3132;BME280;62090;52.330;9.104;2023-05-21T07:41:44;101193.16;;;16.93;84.87
3132;BME280;62090;52.330;9.104;2023-05-21T07:44:14;101213.91;;;17.17;85.28
3132;BME280;62090;52.330;9.104;2023-05-21T07:46:45;101220.81;;;17.24;84.93
3132;BME280;62090;52.330;9.104;2023-05-21T07:49:15;101211.41;;;17.40;83.88
3132;BME280;62090;52.330;9.104;2023-05-21T07:51:46;101199.41;;;17.34;83.51
3132;BME280;62090;52.330;9.104;2023-05-21T07:54:18;101210.56;;;17.33;83.02
3132;BME280;62090;52.330;9.104;2023-05-21T07:56:50;101198.50;;;17.23;83.57
3132;BME280;62090;52.330;9.104;2023-05-21T07:59:40;101212.25;;;17.28;84.02
3132;BME280;62090;52.330;9.104;2023-05-21T08:02:10;101202.75;;;17.19;84.26
3132;BME280;62090;52.330;9.104;2023-05-21T08:04:40;101201.94;;;17.26;84.30
3132;BME280;62090;52.330;9.104;2023-05-21T08:07:10;101197.69;;;17.41;83.17
3132;BME280;62090;52.330;9.104;2023-05-21T08:09:45;101202.06;;;17.55;83.38
3132;BME280;62090;52.330;9.104;2023-05-21T08:12:18;101178.78;;;17.37;83.38
3132;BME280;62090;52.330;9.104;2023-05-21T08:14:48;101196.91;;;17.58;83.82
3132;BME280;62090;52.330;9.104;2023-05-21T08:17:17;101195.19;;;17.59;83.07
3132;BME280;62090;52.330;9.104;2023-05-21T08:19:48;101196.13;;;17.70;83.48
3132;BME280;62090;52.330;9.104;2023-05-21T08:22:17;101177.19;;;17.60;83.70
3132;BME280;62090;52.330;9.104;2023-05-21T08:24:48;101183.25;;;17.81;84.16
3132;BME280;62090;52.330;9.104;2023-05-21T08:27:21;101163.47;;;17.87;82.30
3132;BME280;62090;52.330;9.104;2023-05-21T08:29:50;101193.59;;;18.14;82.83
3132;BME280;62090;52.330;9.104;2023-05-21T08:32:20;101207.38;;;18.31;82.05
3132;BME280;62090;52.330;9.104;2023-05-21T08:34:52;101190.16;;;18.42;81.36
3132;BME280;62090;52.330;9.104;2023-05-21T08:37:38;101197.03;;;18.40;80.87
3132;BME280;62090;52.330;9.104;2023-05-21T08:40:25;101197.03;;;18.37;81.58
3132;BME280;62090;52.330;9.104;2023-05-21T08:43:00;101174.66;;;18.30;81.29
3132;BME280;62090;52.330;9.104;2023-05-21T08:45:38;101207.38;;;18.62;82.51
3132;BME280;62090;52.330;9.104;2023-05-21T08:48:10;101206.50;;;18.63;81.88
3132;BME280;62090;52.330;9.104;2023-05-21T08:50:40;101194.44;;;18.90;81.14
3132;BME280;62090;52.330;9.104;2023-05-21T08:53:16;101202.16;;;18.98;79.58
3132;BME280;62090;52.330;9.104;2023-05-21T08:55:55;101203.81;;;19.14;81.16
3132;BME280;62090;52.330;9.104;2023-05-21T08:58:40;101205.44;;;19.49;79.38
3132;BME280;62090;52.330;9.104;2023-05-21T09:01:12;101204.63;;;19.34;78.89
3132;BME280;62090;52.330;9.104;2023-05-21T09:03:47;101201.22;;;19.23;79.71
3132;BME280;62090;52.330;9.104;2023-05-21T09:06:24;101202.06;;;19.22;80.70
3132;BME280;62090;52.330;9.104;2023-05-21T09:08:58;101208.06;;;19.35;79.43
3132;BME280;62090;52.330;9.104;2023-05-21T09:11:45;101198.66;;;19.16;80.11
3132;BME280;62090;52.330;9.104;2023-05-21T09:14:18;101183.16;;;19.11;80.86
3132;BME280;62090;52.330;9.104;2023-05-21T09:16:59;101207.28;;;19.10;81.14
3132;BME280;62090;52.330;9.104;2023-05-21T09:19:30;101189.22;;;19.01;81.92
3132;BME280;62090;52.330;9.104;2023-05-21T09:22:01;101191.75;;;19.18;81.13
3132;BME280;62090;52.330;9.104;2023-05-21T09:24:32;101198.59;;;19.32;80.67
3132;BME280;62090;52.330;9.104;2023-05-21T09:27:05;101204.59;;;19.37;80.81
3132;BME280;62090;52.330;9.104;2023-05-21T09:29:40;101180.53;;;19.28;81.96
3132;BME280;62090;52.330;9.104;2023-05-21T09:32:10;101198.56;;;19.38;81.92
3132;BME280;62090;52.330;9.104;2023-05-21T09:34:40;101167.53;;;19.38;80.93
3132;BME280;62090;52.330;9.104;2023-05-21T09:37:10;101188.81;;;19.91;81.08
3132;BME280;62090;52.330;9.104;2023-05-21T09:39:53;101177.56;;;19.96;80.30
3132;BME280;62090;52.330;9.104;2023-05-21T09:42:23;101201.53;;;20.22;79.55
3132;BME280;62090;52.330;9.104;2023-05-21T09:44:55;101190.22;;;20.37;78.45
3132;BME280;62090;52.330;9.104;2023-05-21T09:47:26;101191.91;;;20.41;77.01
3132;BME280;62090;52.330;9.104;2023-05-21T09:49:57;101199.56;;;20.56;76.71
3132;BME280;62090;52.330;9.104;2023-05-21T09:52:26;101198.78;;;20.42;76.46
3132;BME280;62090;52.330;9.104;2023-05-21T09:54:56;101184.97;;;20.45;77.08
3132;BME280;62090;52.330;9.104;2023-05-21T09:57:28;101185.72;;;20.57;77.46
3132;BME280;62090;52.330;9.104;2023-05-21T10:00:00;101146.19;;;20.39;77.82
3132;BME280;62090;52.330;9.104;2023-05-21T10:02:41;101174.72;;;20.31;78.27
3132;BME280;62090;52.330;9.104;2023-05-21T10:05:14;101172.09;;;20.36;77.95
3132;BME280;62090;52.330;9.104;2023-05-21T10:07:48;101169.25;;;20.64;78.24
3132;BME280;62090;52.330;9.104;2023-05-21T10:10:20;101155.38;;;20.72;76.25
3132;BME280;62090;52.330;9.104;2023-05-21T10:12:55;101170.63;;;20.97;76.10
3132;BME280;62090;52.330;9.104;2023-05-21T10:15:41;101157.91;;;20.73;77.07
3132;BME280;62090;52.330;9.104;2023-05-21T10:18:16;101130.38;;;20.66;78.25
3132;BME280;62090;52.330;9.104;2023-05-21T10:20:47;101158.59;;;20.89;78.14
3132;BME280;62090;52.330;9.104;2023-05-21T10:23:18;101172.31;;;21.00;77.37
3132;BME280;62090;52.330;9.104;2023-05-21T10:25:50;101172.34;;;20.98;77.52
3132;BME280;62090;52.330;9.104;2023-05-21T10:28:21;101167.75;;;21.22;76.85
3132;BME280;62090;52.330;9.104;2023-05-21T10:30:55;101127.13;;;21.25;76.89
3132;BME280;62090;52.330;9.104;2023-05-21T10:33:25;101155.28;;;21.51;75.18
3132;BME280;62090;52.330;9.104;2023-05-21T10:35:57;101162.63;;;21.78;76.95
3132;BME280;62090;52.330;9.104;2023-05-21T10:38:28;101145.03;;;22.00;74.90
3132;BME280;62090;52.330;9.104;2023-05-21T10:40:59;101162.34;;;22.01;74.86
3132;BME280;62090;52.330;9.104;2023-05-21T10:43:40;101130.72;;;21.75;74.91
3132;BME280;62090;52.330;9.104;2023-05-21T10:46:29;101146.19;;;21.79;73.67
3132;BME280;62090;52.330;9.104;2023-05-21T10:49:22;101135.50;;;22.01;74.22
3132;BME280;62090;52.330;9.104;2023-05-21T10:52:08;101152.19;;;22.38;73.30
3132;BME280;62090;52.330;9.104;2023-05-21T10:54:53;101131.66;;;22.26;71.52
3132;BME280;62090;52.330;9.104;2023-05-21T10:57:46;101123.97;;;22.20;72.62
3132;BME280;62090;52.330;9.104;2023-05-21T11:00:20;101103.91;;;22.28;73.17
3132;BME280;62090;52.330;9.104;2023-05-21T11:02:56;101106.97;;;22.50;71.88
3132;BME280;62090;52.330;9.104;2023-05-21T11:05:40;101096.47;;;22.54;70.84
3132;BME280;62090;52.330;9.104;2023-05-21T11:08:24;101123.88;;;22.70;70.45
3132;BME280;62090;52.330;9.104;2023-05-21T11:10:56;101111.63;;;22.79;70.28
3132;BME280;62090;52.330;9.104;2023-05-21T11:13:28;101124.03;;;23.06;70.47
3132;BME280;62090;52.330;9.104;2023-05-21T11:16:06;101122.84;;;23.22;68.54
3132;BME280;62090;52.330;9.104;2023-05-21T11:19:02;101116.88;;;23.17;69.73
3132;BME280;62090;52.330;9.104;2023-05-21T11:21:33;101102.56;;;22.98;70.14
3132;BME280;62090;52.330;9.104;2023-05-21T11:24:05;101106.72;;;23.06;70.12
3132;BME280;62090;52.330;9.104;2023-05-21T11:26:58;101109.88;;;23.21;71.87
3132;BME280;62090;52.330;9.104;2023-05-21T11:29:51;101106.13;;;22.94;69.56
3132;BME280;62090;52.330;9.104;2023-05-21T11:32:24;101097.88;;;23.15;69.03
3132;BME280;62090;52.330;9.104;2023-05-21T11:34:59;101099.50;;;23.19;69.25
3132;BME280;62090;52.330;9.104;2023-05-21T11:37:30;101085.53;;;23.23;69.79
3132;BME280;62090;52.330;9.104;2023-05-21T11:40:22;101105.88;;;23.44;67.79
3132;BME280;62090;52.330;9.104;2023-05-21T11:42:54;101084.06;;;23.51;68.72
3132;BME280;62090;52.330;9.104;2023-05-21T11:45:28;101091.28;;;23.76;67.78
3132;BME280;62090;52.330;9.104;2023-05-21T11:47:59;101040.72;;;23.50;68.09
3132;BME280;62090;52.330;9.104;2023-05-21T11:50:31;101095.81;;;24.03;67.74
3132;BME280;62090;52.330;9.104;2023-05-21T11:53:03;101077.88;;;23.91;66.37
3132;BME280;62090;52.330;9.104;2023-05-21T11:55:37;101048.34;;;23.92;66.44
3132;BME280;62090;52.330;9.104;2023-05-21T11:58:11;101091.41;;;24.39;65.03
3132;BME280;62090;52.330;9.104;2023-05-21T12:00:45;101082.88;;;24.34;65.82
3132;BME280;62090;52.330;9.104;2023-05-21T12:03:21;101080.56;;;24.54;64.43
3132;BME280;62090;52.330;9.104;2023-05-21T12:06:03;101085.00;;;24.51;63.70
3132;BME280;62090;52.330;9.104;2023-05-21T12:08:34;101057.66;;;24.34;63.85
3132;BME280;62090;52.330;9.104;2023-05-21T12:11:04;101081.59;;;24.49;64.70
3132;BME280;62090;52.330;9.104;2023-05-21T12:13:34;101075.16;;;24.62;64.19
3132;BME280;62090;52.330;9.104;2023-05-21T12:16:05;101068.28;;;25.18;61.63
3132;BME280;62090;52.330;9.104;2023-05-21T12:18:35;101054.41;;;24.90;63.63
3132;BME280;62090;52.330;9.104;2023-05-21T12:21:08;101051.69;;;24.93;63.67
3132;BME280;62090;52.330;9.104;2023-05-21T12:23:38;101047.22;;;24.96;64.66
3132;BME280;62090;52.330;9.104;2023-05-21T12:26:08;101055.72;;;25.03;63.57
3132;BME280;62090;52.330;9.104;2023-05-21T12:28:38;101072.03;;;25.09;62.74
3132;BME280;62090;52.330;9.104;2023-05-21T12:31:13;101030.81;;;24.93;62.84
3132;BME280;62090;52.330;9.104;2023-05-21T12:33:43;101036.53;;;25.05;62.88
3132;BME280;62090;52.330;9.104;2023-05-21T12:36:26;101043.63;;;25.28;62.85
3132;BME280;62090;52.330;9.104;2023-05-21T12:38:56;101061.53;;;25.39;63.34
3132;BME280;62090;52.330;9.104;2023-05-21T12:41:26;101048.75;;;25.31;62.19
3132;BME280;62090;52.330;9.104;2023-05-21T12:43:58;101051.81;;;25.44;62.19
3132;BME280;62090;52.330;9.104;2023-05-21T12:46:28;101054.94;;;25.56;62.12
3132;BME280;62090;52.330;9.104;2023-05-21T12:48:58;101059.09;;;25.62;62.51
3132;BME280;62090;52.330;9.104;2023-05-21T12:51:38;101046.25;;;25.54;63.39
3132;BME280;62090;52.330;9.104;2023-05-21T12:54:12;101053.75;;;25.65;62.78
3132;BME280;62090;52.330;9.104;2023-05-21T12:56:45;101051.13;;;25.91;62.28
3132;BME280;62090;52.330;9.104;2023-05-21T12:59:15;101054.41;;;25.98;60.99
3132;BME280;62090;52.330;9.104;2023-05-21T13:01:46;101043.63;;;25.82;60.98
3132;BME280;62090;52.330;9.104;2023-05-21T13:04:18;101044.53;;;25.81;61.42
3132;BME280;62090;52.330;9.104;2023-05-21T13:06:50;101054.41;;;25.98;61.92
3132;BME280;62090;52.330;9.104;2023-05-21T13:09:20;101052.50;;;25.77;61.34
3132;BME280;62090;52.330;9.104;2023-05-21T13:11:50;101034.94;;;25.82;61.20
3132;BME280;62090;52.330;9.104;2023-05-21T13:14:20;101027.91;;;25.84;60.71
3132;BME280;62090;52.330;9.104;2023-05-21T13:16:50;101040.59;;;25.94;60.06
3132;BME280;62090;52.330;9.104;2023-05-21T13:19:19;101022.19;;;25.97;59.63
3132;BME280;62090;52.330;9.104;2023-05-21T13:21:52;101036.13;;;26.23;59.86
3132;BME280;62090;52.330;9.104;2023-05-21T13:24:22;101005.88;;;26.16;59.66
3132;BME280;62090;52.330;9.104;2023-05-21T13:26:52;101024.06;;;26.43;58.40
3132;BME280;62090;52.330;9.104;2023-05-21T13:29:22;101018.72;;;26.46;58.48